»·PEaware :: N653AW KRDD-KBOI

N653AW :: KRDD-KBOI

FLIGHT INFORMATION

Flight Status: Arrived
Operator: Privately registered:
United States
More flights under this callsign
Pilot: Sergei F. (8485)
Aircraft: AIRBUS A320
(A320)
More flights by this aircraft type
Origin: KRDD Redding Mun
United States
Destination: KBOI Boise Air Terminal/Gowen
United States
More flights between these airports :: More routes between these airports
Route: SHA3 LMT LKV PRNCS SADYL3
File this flight plan on PilotEdge
Remarks:
Altitude:
(Current/Filed)
35,000ft
Speed:
(Current/Filed)
400kts
Departed: 04-Oct-19 06:30 PM
Arrived: 04-Oct-19 07:26 PM
Distance/Time
Traveled:
327nm/0:55
Distance/Time
To Go:
Arrived

Flight Plot

Page will automatically refresh every two minutes.

Flight plan parsing failed; only flown route is shown


Map Options




Map Legend


Flown Route
Filed Route
Departure Airport
Arrival Airport
Navaid (VOR, NDB)
Fix

Horizontal Profiles

Position Reports

Time Latitude Longitude Heading Altitude Ground
Speed
04-Oct-19 18:07 40.505320 -122.298937 315 498ft 0kts
04-Oct-19 18:08 40.505320 -122.298937 315 498ft 0kts
04-Oct-19 18:09 40.505320 -122.298937 315 498ft 0kts
04-Oct-19 18:10 40.505320 -122.298937 315 498ft 0kts
04-Oct-19 18:11 40.505320 -122.298937 315 498ft 0kts
04-Oct-19 18:12 40.505320 -122.298937 315 498ft 0kts
04-Oct-19 18:13 40.505320 -122.298937 315 498ft 0kts
04-Oct-19 18:14 40.505320 -122.298937 315 498ft 0kts
04-Oct-19 18:15 40.505320 -122.298937 315 498ft 0kts
04-Oct-19 18:16 40.505320 -122.298937 315 498ft 0kts
04-Oct-19 18:16 40.505320 -122.298937 315 498ft 0kts
04-Oct-19 18:18 40.505320 -122.298937 315 498ft 0kts
04-Oct-19 18:19 40.505320 -122.298936 315 498ft 0kts
04-Oct-19 18:19 40.505320 -122.298936 315 498ft 0kts
04-Oct-19 18:21 40.505231 -122.298776 281 498ft 2kts
04-Oct-19 18:21 40.505476 -122.298363 176 498ft 0kts
04-Oct-19 18:22 40.505549 -122.298377 173 498ft 0kts
04-Oct-19 18:24 40.505549 -122.298377 173 498ft 0kts
04-Oct-19 18:24 40.505549 -122.298377 173 498ft 0kts
04-Oct-19 18:25 40.505549 -122.298377 173 498ft 0kts
04-Oct-19 18:26 40.504458 -122.298239 174 498ft 8kts
04-Oct-19 18:27 40.502402 -122.296578 135 498ft 9kts
04-Oct-19 18:28 40.501512 -122.294863 19 498ft 6kts
04-Oct-19 18:29 40.523142 -122.294549 0 923ft 174kts
04-Oct-19 18:30 40.573127 -122.295509 357 3811ft 208kts
04-Oct-19 18:31 40.640488 -122.298034 357 6364ft 270kts
04-Oct-19 18:32 40.715995 -122.290521 14 9739ft 286kts
04-Oct-19 18:33 40.798272 -122.258684 14 11623ft 344kts
04-Oct-19 18:34 40.895506 -122.221232 13 13717ft 373kts
04-Oct-19 18:35 40.995949 -122.182576 13 16009ft 383kts
04-Oct-19 18:36 41.099671 -122.142487 12 18044ft 394kts
04-Oct-19 18:37 41.200503 -122.103382 11 19878ft 401kts
04-Oct-19 18:38 41.308120 -122.061511 10 21645ft 408kts
04-Oct-19 18:39 41.416007 -122.019396 9 23186ft 415kts
04-Oct-19 18:40 41.521497 -121.978057 9 24537ft 421kts
04-Oct-19 18:41 41.634176 -121.933741 8 25830ft 428kts
04-Oct-19 18:42 41.748346 -121.888677 8 27028ft 433kts
04-Oct-19 18:43 41.863973 -121.842868 8 28087ft 439kts
04-Oct-19 18:44 41.981386 -121.796173 7 29016ft 443kts
04-Oct-19 18:45 42.098188 -121.743199 19 30158ft 455kts
04-Oct-19 18:46 42.183682 -121.618055 57 31201ft 504kts
04-Oct-19 18:47 42.233791 -121.442937 59 32282ft 506kts
04-Oct-19 18:48 42.282964 -121.268211 60 33121ft 508kts
04-Oct-19 18:49 42.332482 -121.090669 59 34107ft 503kts
04-Oct-19 18:50 42.381150 -120.914974 58 35164ft 496kts
04-Oct-19 18:51 42.429266 -120.740113 58 35312ft 498kts
04-Oct-19 18:52 42.477103 -120.565026 58 35315ft 499kts
04-Oct-19 18:53 42.491891 -120.372383 82 35312ft 529kts
04-Oct-19 18:54 42.490094 -120.173270 82 35276ft 527kts
04-Oct-19 18:55 42.488024 -119.974221 82 35280ft 528kts
04-Oct-19 18:56 42.485599 -119.775404 82 35308ft 529kts
04-Oct-19 18:57 42.482812 -119.575461 83 35326ft 531kts
04-Oct-19 18:58 42.479687 -119.376163 82 35324ft 532kts
04-Oct-19 18:59 42.476201 -119.176083 83 35312ft 531kts
04-Oct-19 19:00 42.472392 -118.977169 84 35299ft 532kts
04-Oct-19 19:01 42.468202 -118.776999 86 35321ft 530kts
04-Oct-19 19:02 42.463712 -118.578572 86 35308ft 528kts
04-Oct-19 19:03 42.458558 -118.379888 86 35287ft 529kts
04-Oct-19 19:04 42.453361 -118.185305 86 35276ft 529kts
04-Oct-19 19:05 42.448083 -117.986620 86 35294ft 528kts
04-Oct-19 19:06 42.463008 -117.795041 56 34705ft 498kts
04-Oct-19 19:07 42.542881 -117.649849 41 31580ft 487kts
04-Oct-19 19:08 42.629616 -117.505944 43 28106ft 500kts
04-Oct-19 19:09 42.717758 -117.358829 44 24828ft 499kts
04-Oct-19 19:10 42.803263 -117.215277 46 22153ft 484kts
04-Oct-19 19:11 42.885809 -117.074916 47 19446ft 469kts
04-Oct-19 19:12 42.965584 -116.938706 47 16917ft 448kts
04-Oct-19 19:13 43.040780 -116.809780 48 14524ft 424kts
04-Oct-19 19:14 43.110409 -116.691865 48 11846ft 360kts
04-Oct-19 19:15 43.166177 -116.597348 48 10801ft 294kts
04-Oct-19 19:16 43.231742 -116.549684 13 9804ft 268kts
04-Oct-19 19:17 43.303175 -116.521261 14 8490ft 264kts
04-Oct-19 19:18 43.372729 -116.493448 14 7256ft 259kts
04-Oct-19 19:19 43.440979 -116.466077 14 6111ft 251kts
04-Oct-19 19:20 43.502532 -116.440479 27 6013ft 211kts
04-Oct-19 19:21 43.546314 -116.396136 35 5616ft 184kts
04-Oct-19 19:22 43.582639 -116.358217 43 4731ft 144kts
04-Oct-19 19:23 43.593238 -116.308134 101 3976ft 146kts
04-Oct-19 19:24 43.577466 -116.257689 119 3187ft 143kts
04-Oct-19 19:25 43.563725 -116.217914 115 2857ft 36kts
04-Oct-19 19:26 43.561786 -116.212148 95 2863ft 7kts
04-Oct-19 19:27 43.562993 -116.212237 295 2862ft 13kts
04-Oct-19 19:28 43.564900 -116.217815 295 2856ft 19kts
04-Oct-19 19:29 43.566773 -116.220387 31 2852ft 4kts
04-Oct-19 19:30 43.567091 -116.220123 31 2852ft 0kts
04-Oct-19 19:31 43.567091 -116.220123 31 2852ft 0kts
04-Oct-19 19:32 43.567091 -116.220123 31 2852ft 0kts
04-Oct-19 19:33 43.567091 -116.220123 31 2852ft 0kts
04-Oct-19 19:34 43.567091 -116.220123 31 2852ft 0kts
04-Oct-19 19:35 43.567091 -116.220123 31 2852ft 0kts
04-Oct-19 19:36 43.567091 -116.220123 31 2852ft 0kts
04-Oct-19 19:37 43.567091 -116.220123 31 2852ft 0kts
04-Oct-19 19:38 43.567091 -116.220123 31 2852ft 0kts

Navigation Log

Ident Type
Flight plan parsing failed, navigation log unavailable